Time;durP1;ratioP1;P1;durP2;ratioP2;P2;SDS_P1;SDS_P2;PMS_P1;PMS_P2;Temp;Humidity;BMP_temperature;BMP_pressure;BME280_temperature;BME280_humidity;BME280_pressure;Samples;Min_cycle;Max_cycle;Signal;HPM_P1;HPM_P2
2023/08/20 00:00:13;;;;;;;0.30;0.30;;;28.40;60.40;;;29.13;43.43;95394.41;5097991;28;20223;-38
2023/08/20 00:02:43;;;;;;;0.30;0.30;;;28.40;60.40;;;29.11;43.76;95398.50;5097785;28;20223;-38
2023/08/20 00:05:10;;;;;;;0.30;0.30;;;28.30;60.40;;;29.08;44.47;95397.22;5096672;28;20199;-38
2023/08/20 00:07:39;;;;;;;0.30;0.30;;;28.30;60.40;;;29.07;44.27;95393.69;5097384;28;20219;-38
2023/08/20 00:10:07;;;;;;;0.30;0.30;;;28.30;60.40;;;29.06;44.42;95396.69;5097557;28;20198;-38
2023/08/20 00:12:34;;;;;;;0.30;0.30;;;28.20;60.40;;;29.04;43.77;95398.88;5097211;28;20219;-38
2023/08/20 00:15:06;;;;;;;0.30;0.30;;;28.20;60.50;;;29.00;44.49;95393.31;5097743;28;20243;-38
2023/08/20 00:17:36;;;;;;;0.35;0.35;;;28.20;60.60;;;28.98;44.49;95391.97;5097373;28;20261;-38
2023/08/20 00:20:10;;;;;;;0.30;0.30;;;28.20;60.60;;;28.97;44.04;95393.09;5096861;28;20237;-38
2023/08/20 00:22:38;;;;;;;0.30;0.30;;;28.10;60.60;;;28.96;44.36;95396.91;5097560;28;20514;-38
2023/08/20 00:25:06;;;;;;;0.30;0.30;;;28.10;60.60;;;28.91;44.14;95390.47;5097581;28;20186;-39
2023/08/20 00:27:33;;;;;;;0.28;0.28;;;28.10;60.60;;;28.90;44.04;95394.25;5097015;28;20198;-38
2023/08/20 00:30:00;;;;;;;0.40;0.40;;;28.10;60.70;;;28.88;44.06;95387.56;5097053;28;20204;-38
2023/08/20 00:32:27;;;;;;;0.30;0.30;;;28.10;61.60;;;28.87;44.45;95394.09;5096932;28;20229;-39
2023/08/20 00:34:55;;;;;;;0.30;0.30;;;28.10;60.70;;;28.84;44.28;95387.34;5096817;28;20196;-39
2023/08/20 00:37:23;;;;;;;0.30;0.30;;;28.00;60.70;;;28.82;44.33;95383.34;5112770;28;20312;-38
2023/08/20 00:39:50;;;;;;;0.30;0.30;;;28.00;60.70;;;28.80;44.18;95383.66;5112595;28;20207;-38
2023/08/20 00:42:17;;;;;;;0.30;0.30;;;28.00;60.80;;;28.77;44.26;95378.06;5096687;28;20617;-38
2023/08/20 00:44:44;;;;;;;0.25;0.25;;;28.00;60.80;;;28.75;44.92;95384.53;5096527;28;20263;-38
2023/08/20 00:47:13;;;;;;;0.30;0.30;;;28.00;60.90;;;28.72;44.38;95378.94;5095651;28;20381;-38
2023/08/20 00:49:41;;;;;;;0.30;0.30;;;28.00;60.90;;;28.72;44.80;95373.53;5096674;28;20201;-38
2023/08/20 00:52:12;;;;;;;0.30;0.30;;;27.90;60.80;;;28.68;44.68;95378.72;5095541;28;20205;-38
2023/08/20 00:54:40;;;;;;;0.30;0.30;;;27.90;61.90;;;28.66;44.75;95378.22;5095918;28;20205;-38
2023/08/20 00:57:08;;;;;;;0.30;0.30;;;27.90;61.00;;;28.60;44.55;95369.38;5096337;28;20216;-38
2023/08/20 00:59:36;;;;;;;0.30;0.30;;;27.90;61.00;;;28.63;44.96;95378.78;5096270;28;20224;-38
2023/08/20 01:02:03;;;;;;;0.30;0.30;;;27.90;61.00;;;28.62;45.07;95379.88;5095417;28;20690;-38
2023/08/20 01:04:31;;;;;;;0.30;0.30;;;27.80;61.00;;;28.59;45.12;95377.78;5096293;28;20532;-38
2023/08/20 01:07:22;;;;;;;0.30;0.30;;;27.80;61.10;;;28.57;45.15;95377.28;5096151;28;20207;-38
2023/08/20 01:10:21;;;;;;;0.30;0.30;;;27.80;61.10;;;28.51;44.65;95386.56;5096797;28;20577;-38
2023/08/20 01:12:49;;;;;;;0.30;0.30;;;27.80;61.10;;;28.51;45.29;95381.16;5096367;28;20579;-38
2023/08/20 01:15:16;;;;;;;0.30;0.30;;;27.80;61.10;;;28.49;44.66;95389.56;5078289;28;20299;-38
2023/08/20 01:17:45;;;;;;;0.30;0.30;;;27.70;61.10;;;28.49;44.86;95386.84;5095799;28;20300;-38
2023/08/20 01:20:15;;;;;;;0.30;0.30;;;27.70;61.10;;;28.47;45.27;95383.63;5096041;28;20628;-38
2023/08/20 01:23:05;;;;;;;0.30;0.30;;;27.70;61.20;;;28.43;45.10;95388.03;5095660;28;20527;-38
2023/08/20 01:26:04;;;;;;;0.30;0.30;;;27.70;61.20;;;28.38;45.30;95388.91;5096227;28;20188;-38
2023/08/20 01:28:31;;;;;;;0.30;0.30;;;27.70;61.20;;;28.38;44.83;95399.69;5096045;28;20235;-38
2023/08/20 01:31:00;;;;;;;0.30;0.30;;;27.70;61.20;;;28.34;45.13;95395.97;5095786;28;20290;-38
2023/08/20 01:33:28;;;;;;;0.20;0.20;;;27.60;62.20;;;28.33;45.36;95398.97;5094932;28;20213;-38
2023/08/20 01:35:57;;;;;;;0.20;0.20;;;27.60;62.10;;;28.30;45.14;95400.34;5078318;28;20203;-38
2023/08/20 01:38:24;;;;;;;0.40;0.40;;;27.60;61.20;;;28.30;45.08;95404.97;5096136;28;20219;-38
2023/08/20 01:40:52;;;;;;;0.20;0.20;;;27.60;61.30;;;28.27;44.79;95403.63;5095532;28;20652;-38
2023/08/20 01:43:19;;;;;;;0.30;0.30;;;27.60;61.30;;;28.25;45.44;95397.75;5094773;28;20196;-38
2023/08/20 01:45:46;;;;;;;0.35;0.35;;;27.50;61.30;;;28.24;45.30;95398.84;5094602;28;20257;-38
2023/08/20 01:48:14;;;;;;;0.40;0.40;;;27.50;61.40;;;28.21;45.21;95402.94;5095526;28;20708;-38
2023/08/20 01:50:42;;;;;;;0.30;0.30;;;27.50;61.40;;;28.21;45.45;95404.81;5095640;28;20231;-39
2023/08/20 01:53:09;;;;;;;0.40;0.40;;;27.50;61.40;;;28.18;45.56;95400.78;5095445;28;20202;-38
2023/08/20 01:55:36;;;;;;;0.30;0.30;;;27.50;62.30;;;28.17;45.35;95401.09;5094180;28;20273;-38
2023/08/20 01:58:04;;;;;;;0.30;0.30;;;27.50;61.50;;;28.14;45.68;95396.28;5094314;28;20611;-38
2023/08/20 02:00:33;;;;;;;0.20;0.20;;;27.40;61.50;;;28.11;45.67;95400.34;5094473;28;20630;-38
2023/08/20 02:03:01;;;;;;;0.30;0.30;;;27.40;61.40;;;28.09;45.57;95403.34;5095302;28;20197;-38
2023/08/20 02:05:28;;;;;;;0.30;0.30;;;27.40;61.50;;;28.07;45.71;95408.22;5095444;28;20567;-38
2023/08/20 02:07:55;;;;;;;0.30;0.30;;;27.40;61.50;;;28.06;45.35;95403.13;5095803;28;20223;-38
2023/08/20 02:10:22;;;;;;;0.30;0.30;;;27.40;61.50;;;28.03;45.76;95401.78;5095045;28;20203;-38
2023/08/20 02:12:49;;;;;;;0.30;0.30;;;27.40;61.50;;;28.02;45.30;95400.19;5095149;28;20529;-38
2023/08/20 02:15:17;;;;;;;0.30;0.30;;;27.30;61.50;;;28.00;45.31;95404.28;5094189;28;20680;-38
2023/08/20 02:17:44;;;;;;;0.40;0.40;;;27.30;61.60;;;27.97;45.80;95397.56;5094825;28;20741;-38
2023/08/20 02:20:11;;;;;;;0.30;0.30;;;27.30;61.60;;;27.94;45.39;95404.34;5094168;28;20278;-38
2023/08/20 02:22:38;;;;;;;0.30;0.30;;;27.30;61.60;;;27.91;45.49;95399.53;5095081;28;20241;-38
2023/08/20 02:25:05;;;;;;;0.30;0.30;;;27.20;61.60;;;27.91;45.40;95398.75;5094119;28;20294;-38
2023/08/20 02:27:32;;;;;;;0.32;0.32;;;27.20;61.70;;;27.90;45.50;95402.53;5095643;28;20239;-38
2023/08/20 02:30:00;;;;;;;0.30;0.30;;;27.20;61.70;;;27.88;46.00;95410.09;5095226;28;20203;-38
2023/08/20 02:32:27;;;;;;;0.30;0.30;;;27.20;61.70;;;27.88;45.82;95407.38;5095508;28;20550;-38
2023/08/20 02:34:55;;;;;;;0.30;0.30;;;27.20;61.70;;;27.86;45.44;95402.28;5095206;28;20200;-38
2023/08/20 02:37:25;;;;;;;0.30;0.30;;;27.20;61.80;;;27.84;45.64;95412.56;5095137;28;20303;-38
2023/08/20 02:39:52;;;;;;;0.30;0.30;;;27.10;61.80;;;27.83;45.65;95408.28;5077030;28;20213;-38
2023/08/20 02:42:19;;;;;;;0.20;0.20;;;27.10;61.80;;;27.78;45.65;95403.75;5095038;28;20190;-38
2023/08/20 02:44:46;;;;;;;0.30;0.30;;;27.10;61.80;;;27.77;46.08;95398.63;5094890;28;20282;-38
2023/08/20 02:47:13;;;;;;;0.30;0.30;;;27.10;61.80;;;27.76;45.96;95402.44;5094806;28;20265;-38
2023/08/20 02:49:40;;;;;;;0.30;0.30;;;27.10;61.80;;;27.73;45.60;95401.09;5094727;28;20211;-38
2023/08/20 02:52:07;;;;;;;0.30;0.30;;;27.10;61.90;;;27.71;46.07;95400.63;5094813;28;20263;-38
2023/08/20 02:54:34;;;;;;;0.30;0.30;;;27.10;61.90;;;27.71;46.15;95405.19;5094787;28;20221;-38
2023/08/20 02:57:02;;;;;;;0.40;0.40;;;27.10;61.90;;;27.69;46.03;95408.19;5110673;28;20289;-38
2023/08/20 02:59:29;;;;;;;0.30;0.30;;;27.10;61.90;;;27.66;45.84;95403.38;5095164;28;20192;-38
2023/08/20 03:01:56;;;;;;;0.30;0.30;;;27.00;61.90;;;27.64;45.85;95403.66;5093780;28;20211;-38
2023/08/20 03:04:23;;;;;;;0.40;0.40;;;27.00;61.90;;;27.63;45.96;95403.94;5094014;28;20574;-38
2023/08/20 03:06:50;;;;;;;0.30;0.30;;;27.00;62.00;;;27.60;46.33;95409.91;5094673;28;20188;-38
2023/08/20 03:09:17;;;;;;;0.30;0.30;;;27.00;62.00;;;27.57;45.84;95405.88;5097131;28;20635;-38
2023/08/20 03:11:45;;;;;;;0.30;0.30;;;27.00;62.10;;;27.55;45.90;95408.09;5114626;28;20245;-38
2023/08/20 03:14:12;;;;;;;0.30;0.30;;;27.00;62.10;;;27.56;46.20;95411.56;5098465;28;20294;-38
2023/08/20 03:16:39;;;;;;;0.30;0.30;;;26.90;62.10;;;27.53;46.42;95412.94;5097434;28;20205;-39
2023/08/20 03:19:06;;;;;;;0.30;0.30;;;26.90;62.00;;;27.52;46.52;95416.72;5098148;28;20242;-38
2023/08/20 03:21:33;;;;;;;0.30;0.30;;;26.90;62.10;;;27.51;46.37;95404.34;5097273;28;20292;-38
2023/08/20 03:24:00;;;;;;;0.30;0.30;;;26.90;62.10;;;27.48;46.10;95411.13;5098735;28;20661;-38
2023/08/20 03:26:27;;;;;;;0.30;0.30;;;26.90;62.10;;;27.47;46.38;95416.81;5114274;28;20200;-39
2023/08/20 03:28:54;;;;;;;0.38;0.38;;;26.90;62.20;;;27.44;46.66;95417.34;5114306;28;20196;-38
2023/08/20 03:31:21;;;;;;;0.30;0.30;;;26.80;62.10;;;27.41;46.22;95416.03;5097787;28;20211;-38
2023/08/20 03:33:49;;;;;;;0.30;0.30;;;26.80;62.10;;;27.40;46.56;95413.63;5097207;28;20198;-38
2023/08/20 03:36:16;;;;;;;0.30;0.30;;;26.80;62.20;;;27.39;46.18;95412.00;5098577;28;20192;-38
2023/08/20 03:38:43;;;;;;;0.30;0.30;;;26.80;62.20;;;27.36;46.45;95410.69;5096963;28;20220;-38
2023/08/20 03:41:10;;;;;;;0.30;0.30;;;26.80;62.30;;;27.35;46.35;95411.78;5113824;28;20209;-38
2023/08/20 03:43:37;;;;;;;0.30;0.30;;;26.80;62.30;;;27.34;46.26;95412.84;5097895;28;20511;-38
2023/08/20 03:46:06;;;;;;;0.30;0.30;;;26.70;62.30;;;27.35;46.43;95413.69;5096841;28;20539;-38
2023/08/20 03:48:33;;;;;;;0.35;0.35;;;26.70;62.30;;;27.34;46.36;95410.16;5098542;28;20291;-38
2023/08/20 03:51:00;;;;;;;0.22;0.22;;;26.70;62.30;;;27.32;46.88;95407.75;5113698;28;20226;-38
2023/08/20 03:53:27;;;;;;;0.30;0.30;;;26.70;62.40;;;27.31;46.74;95413.44;5094572;28;20217;-38
2023/08/20 03:55:54;;;;;;;0.40;0.40;;;26.70;62.40;;;27.29;46.58;95418.31;5076618;28;20528;-38
2023/08/20 03:58:21;;;;;;;0.30;0.30;;;26.70;62.40;;;27.27;46.61;95404.31;5075861;28;20607;-38
2023/08/20 04:00:48;;;;;;;0.40;0.40;;;26.70;62.50;;;27.25;46.48;95412.69;5076179;28;20217;-38
2023/08/20 04:03:19;;;;;;;0.30;0.30;;;26.60;62.40;;;27.24;46.88;95415.69;5077270;28;20245;-38
2023/08/20 04:05:49;;;;;;;0.40;0.40;;;26.60;62.40;;;27.23;46.62;95424.84;5077290;28;20192;-38
2023/08/20 04:08:16;;;;;;;0.25;0.25;;;26.60;62.50;;;27.21;46.55;95418.94;5077406;28;20193;-38
2023/08/20 04:10:47;;;;;;;0.30;0.30;;;26.60;62.40;;;27.20;46.82;95420.03;5077709;28;20234;-38
2023/08/20 04:13:15;;;;;;;0.30;0.30;;;26.60;62.50;;;27.19;46.83;95419.22;5076512;28;20201;-38
2023/08/20 04:15:43;;;;;;;0.40;0.40;;;26.50;62.50;;;27.19;46.48;95421.13;5092981;28;20521;-38
2023/08/20 04:18:10;;;;;;;0.35;0.35;;;26.60;62.50;;;27.18;46.56;95417.63;5059278;28;20228;-41
2023/08/20 04:20:37;;;;;;;0.30;0.30;;;26.50;62.50;;;27.16;46.75;95417.13;5076191;28;20201;-38
2023/08/20 04:23:04;;;;;;;0.32;0.32;;;26.50;62.60;;;27.16;46.90;95419.81;5093595;28;20558;-38
2023/08/20 04:25:31;;;;;;;0.40;0.40;;;26.50;62.60;;;27.16;46.59;95420.59;5076837;28;20198;-38
2023/08/20 04:27:59;;;;;;;0.30;0.30;;;26.50;62.60;;;27.15;46.90;95424.38;5075842;28;20290;-38
2023/08/20 04:30:27;;;;;;;0.30;0.30;;;26.50;62.70;;;27.14;46.97;95427.38;5076135;28;20325;-38
2023/08/20 04:32:54;;;;;;;0.30;0.30;;;26.50;62.70;;;27.11;47.13;95428.72;5075764;28;20201;-38
2023/08/20 04:35:21;;;;;;;0.38;0.38;;;26.50;62.70;;;27.09;47.28;95428.22;5076638;28;20211;-38
2023/08/20 04:37:50;;;;;;;0.30;0.30;;;26.50;62.70;;;27.08;47.08;95433.88;5075868;28;20255;-38
2023/08/20 04:40:17;;;;;;;0.30;0.30;;;26.50;62.80;;;27.08;47.21;95431.97;5076425;28;20233;-38
2023/08/20 04:42:45;;;;;;;0.30;0.30;;;26.50;62.80;;;27.06;46.90;95428.78;5075667;28;20281;-38
2023/08/20 04:45:12;;;;;;;0.30;0.30;;;26.40;62.80;;;27.06;47.48;95430.66;5075489;28;20262;-38
2023/08/20 04:47:39;;;;;;;0.30;0.30;;;26.50;62.80;;;27.07;47.30;95434.97;5076346;28;20227;-38
2023/08/20 04:50:08;;;;;;;0.30;0.30;;;26.50;62.90;;;27.08;46.99;95439.28;5092115;28;20199;-38
2023/08/20 04:52:35;;;;;;;0.30;0.30;;;26.40;62.90;;;27.06;47.33;95436.88;5076418;28;20205;-38
2023/08/20 04:55:03;;;;;;;0.30;0.30;;;26.50;63.00;;;27.07;47.34;95437.66;5075303;28;20639;-38
2023/08/20 04:57:30;;;;;;;0.30;0.30;;;26.40;63.00;;;27.04;47.47;95436.34;5076042;28;20545;-38
2023/08/20 04:59:57;;;;;;;0.30;0.30;;;26.40;63.10;;;27.06;47.39;95438.75;5075139;28;20204;-38
2023/08/20 05:02:50;;;;;;;0.32;0.32;;;26.50;63.20;;;27.03;47.20;95444.72;5074129;28;20592;-38
2023/08/20 05:05:20;;;;;;;0.32;0.32;;;26.40;63.20;;;27.01;47.89;95450.34;5075018;28;20233;-38
2023/08/20 05:07:48;;;;;;;0.30;0.30;;;26.40;63.10;;;27.02;47.55;95451.19;5075777;28;20219;-38
2023/08/20 05:10:15;;;;;;;0.30;0.30;;;26.40;63.30;;;27.04;47.54;95451.69;5074917;28;20204;-38
2023/08/20 05:12:43;;;;;;;0.25;0.25;;;26.40;63.30;;;27.05;47.84;95459.50;5075890;28;20573;-38
2023/08/20 05:15:10;;;;;;;0.30;0.30;;;26.40;63.40;;;27.04;47.87;95452.50;5076372;28;20192;-38
2023/08/20 05:17:37;;;;;;;0.30;0.30;;;26.40;63.50;;;27.05;47.84;95455.97;5074750;28;20230;-38
2023/08/20 05:20:05;;;;;;;0.50;0.50;;;26.40;63.50;;;27.06;48.40;95455.72;5075631;28;20318;-38
2023/08/20 05:22:32;;;;;;;0.30;0.30;;;26.40;63.60;;;27.06;48.21;95454.91;5074842;28;20264;-38
2023/08/20 05:25:00;;;;;;;0.40;0.40;;;26.50;63.80;;;27.06;48.55;95458.41;5075777;28;20642;-38
2023/08/20 05:27:27;;;;;;;0.30;0.30;;;26.50;63.70;;;27.06;48.42;95452.19;5075834;28;20624;-38
2023/08/20 05:29:57;;;;;;;0.40;0.40;;;26.50;63.80;;;27.07;48.45;95457.28;5091151;28;20204;-52
2023/08/20 05:32:24;;;;;;;0.30;0.30;;;26.50;63.90;;;27.08;48.50;95456.22;5075029;28;20224;-38
2023/08/20 05:34:52;;;;;;;0.30;0.30;;;26.50;63.90;;;27.08;48.33;95450.03;5075073;28;20290;-38
2023/08/20 05:37:20;;;;;;;0.30;0.30;;;26.50;64.00;;;27.08;48.61;95450.81;5074577;28;20299;-38
2023/08/20 05:39:47;;;;;;;0.30;0.30;;;26.50;64.00;;;27.09;48.80;95451.66;5074390;28;20238;-38
2023/08/20 05:42:15;;;;;;;0.30;0.30;;;26.50;64.00;;;27.10;48.82;95445.16;5074976;28;20200;-38
2023/08/20 05:44:47;;;;;;;0.38;0.38;;;26.50;64.00;;;27.09;48.62;95455.13;5074418;28;20188;-40
2023/08/20 05:47:19;;;;;;;0.30;0.30;;;26.60;64.30;;;27.09;48.82;95459.72;5091246;28;20200;-39
2023/08/20 05:49:48;;;;;;;0.30;0.30;;;26.60;64.30;;;27.10;48.89;95450.53;5074312;28;20262;-38
2023/08/20 05:52:15;;;;;;;0.30;0.30;;;26.60;64.30;;;27.11;49.10;95458.34;5079707;28;20187;-38
2023/08/20 05:54:43;;;;;;;0.40;0.40;;;26.60;64.40;;;27.11;49.54;95452.16;5108768;28;20219;-38
2023/08/20 05:57:10;;;;;;;0.30;0.30;;;26.60;64.40;;;27.12;49.47;95459.16;5094874;28;20252;-38
2023/08/20 05:59:37;;;;;;;0.30;0.30;;;26.60;64.60;;;27.13;49.25;95461.53;5110697;28;20272;-38
2023/08/20 06:02:04;;;;;;;0.30;0.30;;;26.60;64.60;;;27.15;49.74;95463.97;5094111;28;20234;-38
2023/08/20 06:04:31;;;;;;;0.30;0.30;;;26.60;64.70;;;27.16;49.28;95463.69;5094710;28;20203;-38
2023/08/20 06:06:58;;;;;;;0.30;0.30;;;26.70;64.80;;;27.19;49.78;95475.78;5095239;28;20279;-39
2023/08/20 06:09:25;;;;;;;0.30;0.30;;;26.70;64.80;;;27.21;50.11;95465.53;5095428;28;20192;-40
2023/08/20 06:11:53;;;;;;;0.30;0.30;;;26.70;64.90;;;27.24;49.48;95469.53;5094839;28;20213;-39
2023/08/20 06:14:20;;;;;;;0.20;0.20;;;26.70;64.90;;;27.26;49.81;95472.75;5095698;28;20203;-39
2023/08/20 06:16:47;;;;;;;0.30;0.30;;;26.70;65.00;;;27.29;49.72;95474.88;5084100;28;20588;-38
2023/08/20 06:19:14;;;;;;;0.40;0.40;;;26.80;65.00;;;27.30;49.86;95477.28;5094155;28;20314;-36
2023/08/20 06:21:41;;;;;;;0.30;0.30;;;26.80;65.10;;;27.34;49.96;95472.13;5094563;28;20199;-36
2023/08/20 06:24:08;;;;;;;0.45;0.45;;;26.80;65.10;;;27.36;50.23;95466.47;5093301;28;20231;-36
2023/08/20 06:26:36;;;;;;;0.30;0.30;;;26.80;65.00;;;27.39;49.97;95474.78;5095342;28;20203;-36
2023/08/20 06:29:03;;;;;;;0.30;0.30;;;26.90;65.10;;;27.42;49.97;95479.63;5094955;28;20716;-36
2023/08/20 06:31:30;;;;;;;0.30;0.30;;;26.90;65.20;;;27.46;50.10;95475.25;5094840;28;20204;-36
2023/08/20 06:33:58;;;;;;;0.40;0.40;;;26.90;65.10;;;27.48;50.34;95477.69;5094093;28;20624;-36
2023/08/20 06:36:25;;;;;;;0.30;0.30;;;27.00;65.20;;;27.51;50.25;95471.72;5094362;28;20196;-36
2023/08/20 06:38:52;;;;;;;0.30;0.30;;;27.00;65.10;;;27.54;49.87;95475.72;5095161;28;20231;-36
2023/08/20 06:41:19;;;;;;;0.28;0.28;;;27.00;65.10;;;27.56;50.11;95473.53;5095175;28;20193;-36
2023/08/20 06:43:46;;;;;;;0.30;0.30;;;27.00;65.10;;;27.58;50.03;95476.75;5097992;28;20197;-36
2023/08/20 06:46:13;;;;;;;0.30;0.30;;;27.10;65.10;;;27.61;50.14;95482.38;5114452;28;20251;-36
2023/08/20 06:48:41;;;;;;;0.30;0.30;;;27.10;65.00;;;27.65;49.75;95479.91;5098393;28;20194;-36
2023/08/20 06:51:21;;;;;;;0.22;0.22;;;27.10;64.90;;;27.66;49.65;95480.72;5097786;28;20566;-36
2023/08/20 06:53:49;;;;;;;0.30;0.30;;;27.10;64.90;;;27.70;49.61;95484.47;5098814;28;20205;-37
2023/08/20 06:56:16;;;;;;;0.30;0.30;;;27.20;65.00;;;27.71;50.14;95486.03;5098796;28;20198;-36
2023/08/20 06:58:43;;;;;;;0.30;0.30;;;27.20;64.90;;;27.75;50.02;95484.38;5098979;28;20230;-36
2023/08/20 07:01:12;;;;;;;0.30;0.30;;;27.20;64.80;;;27.77;50.04;95488.41;5114098;28;20224;-37
2023/08/20 07:03:41;;;;;;;0.30;0.30;;;27.20;64.80;;;27.79;50.17;95483.53;5098685;28;20213;-36
2023/08/20 07:17:27;;;;;;;0.30;0.30;;;27.20;64.30;;;28.74;49.06;95495.53;5069040;28;21013;-28
2023/08/20 07:19:54;;;;;;;0.30;0.30;;;27.80;65.60;;;28.73;49.47;95493.91;5048707;28;20272;-27
2023/08/20 07:22:21;;;;;;;0.28;0.28;;;28.00;65.20;;;28.73;49.46;95499.31;5048691;28;20202;-29
2023/08/20 07:24:48;;;;;;;0.30;0.30;;;28.10;64.70;;;28.73;49.34;95493.91;5048513;28;20227;-28
2023/08/20 07:27:15;;;;;;;0.30;0.30;;;28.20;64.40;;;28.72;49.07;95498.53;5048543;28;20214;-29
2023/08/20 07:29:43;;;;;;;0.30;0.30;;;28.30;65.20;;;28.72;48.36;95503.09;5048486;28;20282;-27
2023/08/20 07:32:10;;;;;;;0.30;0.30;;;28.30;64.20;;;28.69;49.05;95506.41;5048407;28;20255;-29
2023/08/20 07:34:37;;;;;;;0.30;0.30;;;28.30;64.00;;;28.66;48.53;95515.88;5048408;28;20636;-30
2023/08/20 07:37:04;;;;;;;0.30;0.30;;;28.20;64.00;;;28.64;48.80;95511.81;5064219;28;20193;-27
2023/08/20 07:39:32;;;;;;;0.30;0.30;;;28.20;63.90;;;28.60;48.51;95515.13;5048084;28;20195;-30
2023/08/20 07:42:00;;;;;;;0.25;0.25;;;28.20;64.00;;;28.59;48.51;95515.44;5048657;28;20260;-28
2023/08/20 07:44:28;;;;;;;0.30;0.30;;;28.20;64.10;;;28.58;48.53;95516.53;5041823;28;20210;-29
2023/08/20 07:46:55;;;;;;;0.30;0.30;;;28.10;64.20;;;28.56;48.97;95526.78;5030989;28;20205;-27
2023/08/20 07:49:23;;;;;;;0.30;0.30;;;28.10;64.20;;;28.55;48.61;95522.50;5028334;28;20250;-28
2023/08/20 07:51:52;;;;;;;0.30;0.30;;;28.10;64.20;;;28.50;49.16;95509.88;5027565;28;20190;-30
2023/08/20 07:54:19;;;;;;;0.30;0.30;;;28.00;64.20;;;28.53;49.20;95522.00;5028212;28;20194;-28
2023/08/20 07:56:46;;;;;;;0.20;0.20;;;28.00;64.20;;;28.52;48.57;95517.69;5028844;28;20623;-28
2023/08/20 07:59:13;;;;;;;0.30;0.30;;;28.00;64.30;;;28.52;48.91;95521.19;5028615;28;20224;-27
2023/08/20 08:01:40;;;;;;;0.30;0.30;;;28.00;64.30;;;28.52;48.79;95515.00;5028112;28;20198;-28
2023/08/20 08:04:07;;;;;;;0.30;0.30;;;28.00;64.30;;;28.52;48.68;95515.78;5038224;28;20571;-29
2023/08/20 08:06:34;;;;;;;0.30;0.30;;;28.00;64.30;;;28.53;49.19;95520.09;5028264;28;20308;-29
2023/08/20 08:09:29;;;;;;;0.30;0.30;;;28.00;64.30;;;28.52;49.47;95513.09;5028784;28;20249;-28
2023/08/20 08:11:57;;;;;;;0.30;0.30;;;28.00;64.30;;;28.53;48.85;95524.69;5028221;28;20179;-28
2023/08/20 08:14:25;;;;;;;0.30;0.30;;;28.00;64.40;;;28.54;49.02;95519.00;5033672;28;20202;-27
2023/08/20 08:16:52;;;;;;;0.30;0.30;;;28.00;64.40;;;28.55;48.83;95520.59;5038443;28;20255;-27
2023/08/20 08:19:20;;;;;;;0.28;0.28;;;28.00;64.50;;;28.58;49.19;95517.31;5034480;28;20555;-27
2023/08/20 08:21:47;;;;;;;0.30;0.30;;;28.00;64.50;;;28.59;49.50;95521.63;5034687;28;20588;-28
2023/08/20 08:24:15;;;;;;;0.40;0.40;;;28.00;64.60;;;28.61;49.47;95521.31;5033552;28;20553;-29
2023/08/20 08:26:42;;;;;;;0.20;0.20;;;28.10;64.60;;;28.62;49.55;95522.94;5034306;28;20209;-28
2023/08/20 08:29:09;;;;;;;0.30;0.30;;;28.00;64.60;;;28.64;48.98;95523.44;5034601;28;20201;-29
2023/08/20 08:31:37;;;;;;;0.30;0.30;;;28.10;64.60;;;28.65;49.15;95519.66;5034238;28;20580;-29
2023/08/20 08:34:04;;;;;;;0.30;0.30;;;28.10;64.60;;;28.67;48.91;95522.84;5034246;28;20194;-27
2023/08/20 08:36:31;;;;;;;0.40;0.40;;;28.10;64.60;;;28.70;49.42;95529.63;5034209;28;20251;-28
2023/08/20 08:38:58;;;;;;;0.25;0.25;;;28.10;64.60;;;28.71;48.87;95526.63;5034412;28;20236;-27
2023/08/20 08:41:28;;;;;;;0.20;0.20;;;28.10;64.60;;;28.74;48.83;95528.72;5034087;28;20206;-27
2023/08/20 08:43:57;;;;;;;0.20;0.20;;;28.10;64.60;;;28.75;49.44;95521.44;5032829;28;20285;-30
2023/08/20 08:46:25;;;;;;;0.20;0.20;;;28.20;64.60;;;28.78;49.09;95525.44;5018587;28;20603;-29
2023/08/20 08:48:52;;;;;;;0.30;0.30;;;28.10;65.40;;;28.80;48.86;95534.06;5013513;28;20195;-30
2023/08/20 08:51:20;;;;;;;0.20;0.20;;;28.20;64.60;;;28.82;49.37;95523.75;5013870;28;20198;-29
2023/08/20 08:53:47;;;;;;;0.30;0.30;;;28.20;64.60;;;28.85;48.85;95529.38;5014723;28;20222;-27
2023/08/20 08:56:14;;;;;;;0.30;0.30;;;28.20;65.50;;;28.88;49.44;95530.66;5013720;28;20232;-28
2023/08/20 08:58:41;;;;;;;0.30;0.30;;;28.30;64.70;;;28.91;48.95;95528.19;5014432;28;20260;-29
2023/08/20 09:01:08;;;;;;;0.30;0.30;;;28.30;64.70;;;28.94;49.55;95526.00;5014367;28;20660;-28
2023/08/20 09:03:36;;;;;;;0.40;0.40;;;28.30;64.50;;;28.98;48.79;95529.72;5014662;28;20215;-29
2023/08/20 09:06:09;;;;;;;0.30;0.30;;;28.40;64.50;;;29.01;48.79;95532.63;5014300;28;20289;-29
2023/08/20 09:08:36;;;;;;;0.30;0.30;;;28.40;64.40;;;29.03;48.95;95529.66;5014318;28;20209;-29
2023/08/20 09:11:03;;;;;;;0.32;0.32;;;28.40;64.40;;;29.05;48.79;95530.97;5013681;28;20653;-28
2023/08/20 09:13:40;;;;;;;0.35;0.35;;;28.40;64.30;;;29.08;48.71;95530.34;5014155;28;20239;-28
2023/08/20 09:16:10;;;;;;;0.30;0.30;;;28.40;64.20;;;29.11;48.47;95526.25;4996947;28;20247;-28
2023/08/20 09:18:42;;;;;;;0.20;0.20;;;28.50;64.20;;;29.16;48.46;95528.06;5013924;28;20196;-28
2023/08/20 09:21:11;;;;;;;0.25;0.25;;;28.50;64.00;;;29.19;48.89;95533.69;5013262;28;20623;-28
2023/08/20 09:23:38;;;;;;;0.20;0.20;;;28.50;64.00;;;29.22;48.56;95529.59;5012914;28;20204;-30
2023/08/20 09:26:07;;;;;;;0.40;0.40;;;28.50;63.90;;;29.22;48.35;95527.72;5013648;28;20218;-28
2023/08/20 09:28:42;;;;;;;0.20;0.20;;;28.60;64.80;;;29.27;47.90;95534.09;5012600;28;20196;-30
2023/08/20 09:31:11;;;;;;;0.30;0.30;;;28.60;63.60;;;29.29;48.30;95538.13;5013654;28;20203;-28
2023/08/20 09:33:50;;;;;;;0.32;0.32;;;28.60;63.60;;;29.32;48.12;95528.63;5014013;28;20196;-28
2023/08/20 09:36:17;;;;;;;0.30;0.30;;;28.70;63.50;;;29.34;47.57;95534.56;5013861;28;20220;-29
2023/08/20 09:38:45;;;;;;;0.30;0.30;;;28.70;63.50;;;29.36;47.70;95529.66;5013546;28;20291;-28
2023/08/20 09:41:14;;;;;;;0.20;0.20;;;28.70;63.40;;;29.38;47.52;95528.28;5013672;28;20199;-31
2023/08/20 09:43:43;;;;;;;0.30;0.30;;;28.70;63.50;;;29.39;47.98;95521.78;5013492;28;20206;-28
2023/08/20 09:46:12;;;;;;;0.30;0.30;;;28.70;63.30;;;29.44;48.02;95528.19;5013681;28;20602;-29
2023/08/20 09:48:43;;;;;;;0.20;0.20;;;28.80;63.40;;;29.45;47.31;95527.06;5012535;28;20588;-28
2023/08/20 09:51:11;;;;;;;0.30;0.30;;;28.80;63.20;;;29.47;47.98;95530.28;5012760;28;20186;-30
2023/08/20 09:53:47;;;;;;;0.20;0.20;;;28.80;63.20;;;29.49;47.95;95530.78;5012999;28;20193;-28
2023/08/20 09:56:31;;;;;;;0.30;0.30;;;28.80;63.20;;;29.50;47.33;95524.28;5013462;28;20595;-28
2023/08/20 09:58:58;;;;;;;0.43;0.43;;;28.80;63.20;;;29.53;47.09;95518.28;5013588;28;20542;-28
2023/08/20 10:01:27;;;;;;;0.30;0.30;;;28.80;63.20;;;29.55;47.11;95521.47;5019192;28;20298;-30
2023/08/20 10:03:54;;;;;;;0.20;0.20;;;28.80;63.20;;;29.57;47.19;95527.41;5016637;28;20576;-28
2023/08/20 10:06:23;;;;;;;0.30;0.30;;;28.90;63.20;;;29.62;47.01;95524.59;5013293;28;20231;-29
2023/08/20 10:08:51;;;;;;;0.40;0.40;;;28.90;63.10;;;29.63;47.06;95525.41;5012258;28;20270;-28
2023/08/20 10:11:18;;;;;;;0.28;0.28;;;28.90;63.10;;;29.65;47.50;95521.31;5012929;28;20189;-28
2023/08/20 10:13:46;;;;;;;0.32;0.32;;;28.90;63.10;;;29.68;47.20;95528.00;5013165;28;20188;-28
2023/08/20 10:16:13;;;;;;;0.40;0.40;;;28.90;63.10;;;29.69;47.03;95526.91;5011616;28;20698;-28
2023/08/20 10:18:41;;;;;;;0.30;0.30;;;29.00;63.10;;;29.73;47.25;95527.13;5013446;28;20198;-28
2023/08/20 10:21:09;;;;;;;0.40;0.40;;;29.00;63.10;;;29.75;46.99;95527.59;5012014;28;20692;-29
2023/08/20 10:23:43;;;;;;;0.22;0.22;;;29.00;63.00;;;29.77;47.52;95528.09;5012494;28;20288;-30
2023/08/20 10:26:11;;;;;;;0.28;0.28;;;29.00;62.90;;;29.77;47.45;95528.94;5011880;28;20262;-28
2023/08/20 10:28:40;;;;;;;0.30;0.30;;;29.00;63.00;;;29.80;46.61;95522.91;5012963;28;20610;-28
2023/08/20 10:31:12;;;;;;;0.30;0.30;;;29.10;62.90;;;29.82;46.56;95533.41;5012706;28;20619;-28
2023/08/20 10:33:51;;;;;;;0.38;0.38;;;29.10;62.80;;;29.82;46.47;95534.22;5012862;28;20224;-29
2023/08/20 10:36:28;;;;;;;0.30;0.30;;;29.10;62.80;;;29.85;47.06;95536.31;5011979;28;20295;-33